Time;durP1;ratioP1;P1;durP2;ratioP2;P2;SDS_P1;SDS_P2;PMS_P1;PMS_P2;Temp;Humidity;BMP_temperature;BMP_pressure;BME280_temperature;BME280_humidity;BME280_pressure;Samples;Min_cycle;Max_cycle;Signal;HPM_P1;HPM_P2
2021/09/13 07:44:17;;;;;;;4.45;2.88;;;20.60;75.10;;;;;;5134061;27;20876;-64
2021/09/13 07:46:43;;;;;;;10.60;4.38;;;20.60;75.40;;;;;;5132275;28;20020;-65
2021/09/13 07:49:08;;;;;;;13.52;5.07;;;20.60;75.00;;;;;;5131774;28;20027;-63
2021/09/13 07:51:33;;;;;;;17.98;4.80;;;20.70;75.00;;;;;;5132551;28;20047;-63
2021/09/13 07:53:59;;;;;;;22.75;7.35;;;20.80;74.70;;;;;;5132739;28;20019;-64
2021/09/13 07:56:24;;;;;;;17.25;4.95;;;20.90;74.50;;;;;;5131545;28;20034;-64
2021/09/13 07:58:50;;;;;;;21.17;6.10;;;20.90;74.20;;;;;;5132761;28;20102;-65
2021/09/13 08:01:15;;;;;;;11.50;4.35;;;21.00;74.10;;;;;;5132683;28;20494;-64
2021/09/13 08:03:41;;;;;;;15.38;4.40;;;21.00;74.00;;;;;;5131264;28;20028;-70
2021/09/13 08:06:07;;;;;;;16.55;4.53;;;21.00;73.80;;;;;;5132367;28;20466;-66
2021/09/13 08:08:32;;;;;;;21.30;7.15;;;21.10;74.60;;;;;;5112801;28;20472;-65
2021/09/13 08:10:58;;;;;;;17.98;5.22;;;21.10;73.80;;;;;;5131172;28;20031;-63
2021/09/13 08:13:23;;;;;;;18.92;4.45;;;21.20;73.70;;;;;;5131696;28;20080;-63
2021/09/13 08:15:49;;;;;;;13.02;4.93;;;21.20;73.50;;;;;;5130078;28;20031;-66
2021/09/13 08:18:14;;;;;;;14.98;4.97;;;21.20;73.50;;;;;;5118782;28;20031;-67
2021/09/13 08:20:40;;;;;;;17.40;5.35;;;21.20;73.40;;;;;;5111223;28;20336;-71
2021/09/13 08:23:05;;;;;;;12.30;3.97;;;21.30;73.30;;;;;;5109884;28;20036;-65
2021/09/13 08:25:30;;;;;;;20.65;4.88;;;21.30;73.30;;;;;;5049321;28;20055;-65
2021/09/13 08:27:56;;;;;;;10.75;5.13;;;21.30;73.20;;;;;;5070349;28;20025;-68
2021/09/13 08:30:21;;;;;;;15.00;5.15;;;21.30;73.10;;;;;;5069050;28;20024;-63
2021/09/13 08:32:47;;;;;;;16.85;4.90;;;21.30;73.10;;;;;;5070856;28;20024;-63
2021/09/13 08:35:12;;;;;;;18.48;4.85;;;21.30;73.00;;;;;;5069437;28;20024;-65
2021/09/13 08:37:38;;;;;;;21.85;5.03;;;21.40;73.00;;;;;;5078755;28;20032;-65
2021/09/13 08:40:03;;;;;;;15.00;4.05;;;21.40;72.90;;;;;;5090605;28;20036;-65
2021/09/13 08:42:29;;;;;;;15.02;5.03;;;21.40;72.80;;;;;;5089700;28;20040;-63
2021/09/13 08:44:54;;;;;;;13.57;4.45;;;21.40;72.90;;;;;;5090097;28;20081;-68
2021/09/13 08:49:47;;;;;;;12.05;4.38;;;21.40;72.80;;;;;;5089629;28;20024;-61
2021/09/13 08:52:13;;;;;;;13.65;4.30;;;21.50;72.80;;;;;;5090146;28;20027;-63
2021/09/13 08:54:39;;;;;;;10.38;3.38;;;21.50;72.50;;;;;;5081823;28;20020;-64
2021/09/13 08:57:06;;;;;;;18.08;4.57;;;21.50;72.50;;;;;;5075549;28;20025;-65
2021/09/13 08:59:31;;;;;;;15.02;4.45;;;21.50;72.70;;;;;;5074660;28;20020;-67
2021/09/13 09:01:59;;;;;;;22.90;4.57;;;21.60;72.80;;;;;;5075356;28;20051;-62
2021/09/13 09:04:24;;;;;;;13.45;4.32;;;21.60;72.90;;;;;;5074114;28;20347;-63
2021/09/13 09:06:50;;;;;;;9.68;3.83;;;21.60;72.90;;;;;;5076368;28;20028;-62
2021/09/13 09:09:16;;;;;;;13.82;4.05;;;21.60;72.90;;;;;;5056554;28;20060;-68
2021/09/13 09:11:41;;;;;;;12.48;3.50;;;21.60;72.90;;;;;;5056325;28;20013;-62
2021/09/13 09:14:09;;;;;;;13.55;4.60;;;21.60;72.90;;;;;;5057759;28;20052;-64
2021/09/13 09:16:35;;;;;;;17.00;4.07;;;21.60;72.80;;;;;;5061481;28;20044;-62
2021/09/13 09:19:00;;;;;;;10.38;3.35;;;21.70;72.80;;;;;;5000743;28;20306;-66
2021/09/13 09:21:26;;;;;;;10.70;3.20;;;21.70;72.70;;;;;;5056194;28;20093;-60
2021/09/13 09:23:51;;;;;;;14.20;4.50;;;21.70;72.60;;;;;;5076820;28;20033;-62
2021/09/13 09:26:16;;;;;;;18.55;4.93;;;21.70;72.70;;;;;;5076542;28;20052;-66
2021/09/13 09:28:42;;;;;;;15.43;5.22;;;21.70;72.80;;;;;;5075636;28;20021;-60
2021/09/13 09:31:07;;;;;;;15.40;5.32;;;21.80;72.80;;;;;;5076231;28;20024;-64
2021/09/13 09:33:32;;;;;;;16.70;5.15;;;21.80;72.70;;;;;;5067015;28;20021;-60
2021/09/13 09:35:59;;;;;;;19.35;6.15;;;21.80;72.70;;;;;;5059013;28;20033;-63
2021/09/13 09:38:24;;;;;;;14.20;5.90;;;21.80;72.60;;;;;;5071642;28;20044;-60
2021/09/13 09:40:49;;;;;;;21.35;6.75;;;21.80;72.60;;;;;;5075791;28;20025;-62
2021/09/13 09:43:15;;;;;;;19.42;5.85;;;21.90;72.60;;;;;;5074152;28;20048;-63
2021/09/13 09:45:40;;;;;;;21.27;7.40;;;21.90;72.50;;;;;;5075262;28;20111;-61
2021/09/13 09:48:06;;;;;;;23.60;6.07;;;21.90;72.40;;;;;;5074813;28;20024;-60
2021/09/13 09:50:33;;;;;;;14.63;6.63;;;22.00;72.30;;;;;;5075503;28;20024;-63
2021/09/13 09:52:58;;;;;;;16.05;5.80;;;22.00;72.20;;;;;;5061615;28;20041;-59
2021/09/13 09:55:24;;;;;;;16.17;5.15;;;22.00;72.00;;;;;;5056980;28;20088;-60
2021/09/13 09:57:49;;;;;;;16.55;5.75;;;22.00;72.30;;;;;;5055817;28;20427;-63
2021/09/13 10:00:15;;;;;;;15.77;5.25;;;22.00;72.00;;;;;;5063697;28;20025;-63
2021/09/13 10:02:40;;;;;;;16.70;5.68;;;22.00;72.20;;;;;;4880580;28;72951;-65
2021/09/13 10:05:07;;;;;;;20.83;5.88;;;22.10;72.50;;;;;;5004364;28;20030;-64
2021/09/13 12:17:20;;;;;;;3.65;1.50;;;21.10;61.40;;;;;;5109644;27;20392;-71
2021/09/13 12:20:12;;;;;;;6.72;1.52;;;20.90;61.20;;;;;;5079502;28;20040;-71
2021/09/13 12:22:39;;;;;;;3.85;1.42;;;20.80;58.50;;;;;;5092925;28;20080;-71
2021/09/13 12:25:13;;;;;;;4.65;1.73;;;20.70;60.60;;;;;;5080865;28;20052;-72
2021/09/13 12:27:48;;;;;;;3.80;1.40;;;20.70;60.50;;;;;;5070048;28;20056;-71
2021/09/13 12:30:23;;;;;;;5.25;2.50;;;20.70;60.40;;;;;;5070184;28;20044;-70
2021/09/13 12:32:51;;;;;;;11.75;6.10;;;20.80;62.50;;;;;;5053093;28;20459;-70
2021/09/13 12:35:29;;;;;;;4.80;2.30;;;20.90;62.20;;;;;;5052890;28;20048;-71
2021/09/13 12:37:56;;;;;;;4.13;1.70;;;20.90;61.20;;;;;;5069603;28;20055;-71
2021/09/13 12:40:23;;;;;;;5.90;1.85;;;20.90;61.70;;;;;;5068899;28;20051;-69
2021/09/13 12:42:51;;;;;;;2.45;1.20;;;20.80;60.00;;;;;;5068880;28;20055;-69
2021/09/13 12:45:19;;;;;;;4.03;1.30;;;20.70;61.60;;;;;;5068261;28;20076;-72
2021/09/13 12:47:54;;;;;;;2.92;1.50;;;20.70;61.00;;;;;;5088250;28;20044;-70
2021/09/13 12:50:37;;;;;;;4.40;1.08;;;20.70;61.60;;;;;;5064056;28;20127;-70
2021/09/13 12:53:16;;;;;;;3.15;1.52;;;20.80;60.80;;;;;;5096663;28;20052;-71
2021/09/13 12:55:44;;;;;;;2.25;1.05;;;20.90;62.40;;;;;;5070424;28;20543;-70
2021/09/13 12:58:24;;;;;;;3.30;1.65;;;20.90;62.10;;;;;;5069256;28;20054;-70
2021/09/13 13:00:51;;;;;;;5.07;1.20;;;21.10;60.60;;;;;;5092046;28;20229;-70
2021/09/13 13:03:19;;;;;;;4.18;1.73;;;21.20;62.60;;;;;;5061997;28;20048;-70
2021/09/13 13:05:52;;;;;;;5.18;1.88;;;21.20;61.10;;;;;;5079399;28;20134;-72
2021/09/13 13:08:19;;;;;;;2.95;1.27;;;21.10;61.90;;;;;;5086741;28;20139;-72
2021/09/13 13:10:46;;;;;;;2.03;1.30;;;21.00;61.30;;;;;;5087802;28;20052;-70
2021/09/13 13:13:14;;;;;;;3.13;1.70;;;21.00;62.40;;;;;;5104688;28;20126;-71
2021/09/13 13:15:41;;;;;;;2.47;1.48;;;20.90;60.70;;;;;;5087922;28;20470;-70
2021/09/13 13:18:20;;;;;;;2.55;1.30;;;20.80;63.60;;;;;;5099481;28;20044;-69
2021/09/13 13:20:48;;;;;;;4.75;1.80;;;20.80;61.50;;;;;;5076200;28;20876;-71
2021/09/13 13:23:15;;;;;;;2.17;1.35;;;20.80;61.10;;;;;;5078508;28;20048;-70
2021/09/13 13:25:43;;;;;;;4.88;1.42;;;20.70;62.50;;;;;;5061809;28;20441;-70
2021/09/13 13:28:10;;;;;;;4.35;2.03;;;20.80;62.50;;;;;;5084572;28;20047;-70
2021/09/13 13:30:37;;;;;;;4.10;1.40;;;20.80;62.50;;;;;;5039218;28;20392;-70
2021/09/13 13:33:06;;;;;;;3.03;1.33;;;20.80;60.30;;;;;;5039328;28;20128;-70
2021/09/13 13:35:34;;;;;;;2.78;1.52;;;20.80;61.60;;;;;;5066935;28;20154;-70
2021/09/13 13:38:02;;;;;;;7.30;1.50;;;20.80;61.80;;;;;;5073095;28;20081;-70
2021/09/13 13:40:29;;;;;;;7.35;2.45;;;20.80;61.90;;;;;;5086667;28;20129;-71
2021/09/13 13:42:57;;;;;;;4.75;2.17;;;20.80;62.00;;;;;;5074281;28;20076;-70
2021/09/13 13:45:24;;;;;;;4.05;2.03;;;20.70;63.50;;;;;;5063516;28;20488;-70
2021/09/13 13:47:53;;;;;;;8.15;3.20;;;20.80;63.90;;;;;;5070734;28;20136;-70
2021/09/13 13:50:21;;;;;;;8.25;4.10;;;20.90;64.00;;;;;;5053512;28;20523;-69
2021/09/13 13:52:48;;;;;;;6.47;2.63;;;21.00;63.70;;;;;;5045221;28;20127;-70
2021/09/13 13:55:18;;;;;;;4.75;2.13;;;21.00;62.50;;;;;;5080556;28;20484;-70
2021/09/13 13:57:45;;;;;;;7.82;2.13;;;20.90;62.00;;;;;;5053492;28;20093;-70
2021/09/13 14:00:13;;;;;;;3.30;2.08;;;20.90;62.60;;;;;;5083906;28;20044;-70
2021/09/13 14:02:40;;;;;;;2.90;1.52;;;20.90;64.70;;;;;;5057780;28;20473;-70
2021/09/13 14:05:08;;;;;;;6.97;2.10;;;20.90;63.50;;;;;;5056907;28;20166;-70
2021/09/13 14:07:35;;;;;;;6.50;2.40;;;21.00;63.90;;;;;;5057260;28;20055;-70
2021/09/13 14:10:03;;;;;;;3.65;1.67;;;20.90;63.10;;;;;;5060180;28;20052;-69
2021/09/13 14:12:30;;;;;;;5.05;1.60;;;20.90;64.50;;;;;;5053864;28;20049;-70
2021/09/13 14:14:58;;;;;;;3.25;1.77;;;20.90;63.80;;;;;;5063333;28;20045;-71
2021/09/13 14:17:25;;;;;;;4.18;1.80;;;20.90;63.70;;;;;;5037540;28;20476;-71
2021/09/13 14:19:52;;;;;;;6.40;2.30;;;20.90;62.20;;;;;;5063655;28;20056;-71
2021/09/13 14:22:19;;;;;;;5.93;4.25;;;20.90;62.70;;;;;;5063028;28;20048;-72
2021/09/13 14:24:46;;;;;;;5.03;2.05;;;20.90;62.80;;;;;;5080317;28;20483;-72
2021/09/13 14:27:13;;;;;;;6.65;2.45;;;20.80;63.60;;;;;;5064776;28;20500;-73
2021/09/13 14:29:39;;;;;;;4.88;1.70;;;20.70;63.50;;;;;;5064028;28;20082;-74
2021/09/13 14:32:06;;;;;;;3.95;1.83;;;20.70;64.50;;;;;;5076113;28;20045;-72
2021/09/13 14:34:33;;;;;;;6.20;2.40;;;20.60;63.00;;;;;;5065392;28;20048;-74
2021/09/13 14:37:00;;;;;;;4.13;2.17;;;20.50;64.10;;;;;;5077148;28;20044;-71
2021/09/13 14:39:28;;;;;;;5.88;2.15;;;20.40;64.70;;;;;;5065533;28;20066;-71
2021/09/13 14:41:55;;;;;;;4.13;1.83;;;20.30;64.90;;;;;;5052821;28;20460;-71
2021/09/13 14:44:22;;;;;;;2.60;1.70;;;20.30;65.60;;;;;;5071362;28;20064;-72
2021/09/13 14:46:49;;;;;;;3.13;1.42;;;20.30;65.40;;;;;;5071254;28;20123;-76
2021/09/13 14:49:18;;;;;;;6.43;1.60;;;20.30;65.60;;;;;;5056712;28;20056;-72
2021/09/13 14:51:45;;;;;;;4.00;1.75;;;20.40;65.60;;;;;;5084093;28;20093;-70
2021/09/13 14:54:16;;;;;;;2.83;1.65;;;20.40;65.90;;;;;;5069153;28;20127;-69
2021/09/13 14:56:44;;;;;;;2.30;1.48;;;20.40;65.40;;;;;;5081996;28;20451;-69
2021/09/13 14:59:11;;;;;;;5.53;1.60;;;20.20;65.80;;;;;;5059893;28;20067;-70
2021/09/13 15:01:38;;;;;;;4.22;1.88;;;20.20;66.50;;;;;;5089409;28;20151;-69
2021/09/13 15:04:06;;;;;;;4.95;1.98;;;20.10;66.80;;;;;;5082167;28;20465;-68
2021/09/13 15:06:35;;;;;;;5.15;2.78;;;20.10;67.20;;;;;;5070812;28;20056;-69
2021/09/13 15:09:03;;;;;;;8.55;3.55;;;20.10;67.30;;;;;;5062315;28;20044;-69
2021/09/13 15:11:31;;;;;;;6.60;3.45;;;20.00;67.60;;;;;;5070591;28;20076;-68
2021/09/13 15:13:58;;;;;;;4.57;2.60;;;20.00;68.50;;;;;;5069367;28;20097;-70
2021/09/13 15:16:25;;;;;;;3.95;1.80;;;20.00;69.00;;;;;;5042718;28;20060;-68
2021/09/13 15:18:56;;;;;;;4.65;2.17;;;20.00;69.00;;;;;;5065377;28;20093;-70
2021/09/13 15:21:24;;;;;;;4.00;2.03;;;20.00;69.50;;;;;;5059992;28;20051;-69
2021/09/13 15:23:51;;;;;;;4.05;1.70;;;19.90;68.80;;;;;;5084073;28;20062;-70
2021/09/13 15:26:18;;;;;;;4.95;2.25;;;19.80;69.40;;;;;;5058945;28;20076;-70
2021/09/13 15:28:45;;;;;;;6.13;2.13;;;19.80;70.10;;;;;;5058107;28;20419;-70
2021/09/13 15:31:12;;;;;;;7.38;1.92;;;19.60;70.30;;;;;;5078144;28;20131;-70
2021/09/13 15:33:39;;;;;;;5.78;2.10;;;19.60;70.60;;;;;;5079057;28;20040;-70
2021/09/13 15:36:07;;;;;;;8.45;2.25;;;19.60;70.90;;;;;;5056495;28;20048;-69
2021/09/13 15:38:38;;;;;;;;;;;19.60;70.80;;;;;;5075679;28;20474;-72
2021/09/13 15:41:05;;;;;;;2.63;1.65;;;19.50;71.40;;;;;;5074626;28;19928;-73
2021/09/13 15:43:32;;;;;;;12.48;2.03;;;19.50;71.90;;;;;;5059824;28;20048;-72
2021/09/13 15:45:59;;;;;;;7.32;2.40;;;19.50;70.60;;;;;;5075160;28;20488;-74
2021/09/13 15:48:27;;;;;;;3.38;1.63;;;19.60;70.40;;;;;;5040987;28;20094;-71
2021/09/13 15:50:54;;;;;;;5.30;1.70;;;19.50;69.90;;;;;;5072182;28;20476;-71
2021/09/13 15:53:21;;;;;;;3.40;1.50;;;19.50;69.90;;;;;;5080490;28;20078;-69
2021/09/13 15:55:49;;;;;;;4.72;2.38;;;19.40;70.00;;;;;;5077209;28;20044;-69
2021/09/13 15:58:16;;;;;;;3.05;1.60;;;19.40;69.70;;;;;;5084559;28;20135;-69
2021/09/13 16:00:43;;;;;;;3.13;1.75;;;19.30;69.90;;;;;;5082137;28;20152;-71
2021/09/13 16:03:10;;;;;;;6.20;1.95;;;19.30;70.20;;;;;;5034871;28;20041;-71
2021/09/13 16:05:37;;;;;;;2.55;1.30;;;19.50;70.50;;;;;;5073926;28;20040;-70
2021/09/13 16:08:05;;;;;;;5.53;1.85;;;19.30;70.20;;;;;;5044813;28;20052;-70
2021/09/13 16:10:35;;;;;;;7.45;2.13;;;19.40;70.90;;;;;;5074846;28;20052;-71
2021/09/13 16:13:02;;;;;;;5.75;1.50;;;19.40;71.00;;;;;;5082005;28;20127;-71
2021/09/13 16:15:29;;;;;;;2.75;1.38;;;19.50;70.90;;;;;;5082558;28;20048;-73
2021/09/13 16:17:56;;;;;;;2.95;1.60;;;19.40;70.90;;;;;;5087619;28;20440;-74
2021/09/13 16:20:27;;;;;;;5.28;1.50;;;19.30;71.00;;;;;;5042609;28;20058;-72
2021/09/13 16:22:55;;;;;;;3.17;1.58;;;19.30;71.10;;;;;;5071744;28;20055;-72
2021/09/13 16:25:22;;;;;;;5.10;1.70;;;19.40;71.60;;;;;;5049740;28;20152;-70
2021/09/13 16:27:49;;;;;;;3.13;2.13;;;19.30;71.60;;;;;;5066739;28;20052;-70
2021/09/13 16:30:16;;;;;;;3.50;1.40;;;19.30;71.70;;;;;;5049056;28;20829;-71
2021/09/13 16:32:43;;;;;;;3.05;1.50;;;19.30;72.10;;;;;;5067464;28;20081;-69
2021/09/13 16:35:10;;;;;;;4.80;1.65;;;19.30;72.10;;;;;;5051409;28;20139;-69
2021/09/13 16:37:38;;;;;;;9.95;7.80;;;19.20;72.40;;;;;;5067500;28;20067;-69
2021/09/13 16:40:06;;;;;;;5.68;3.17;;;19.30;72.50;;;;;;5041070;28;20075;-69
2021/09/13 16:42:33;;;;;;;5.05;1.88;;;19.20;72.70;;;;;;5085924;28;20052;-69
2021/09/13 16:45:00;;;;;;;4.50;2.72;;;19.20;71.90;;;;;;5058564;28;20072;-70
2021/09/13 16:47:28;;;;;;;3.55;1.77;;;19.20;73.00;;;;;;5067503;28;20144;-69
2021/09/13 16:49:55;;;;;;;2.87;2.00;;;19.10;72.00;;;;;;5054909;28;20048;-69
2021/09/13 16:52:23;;;;;;;4.65;2.05;;;19.00;72.40;;;;;;5069607;28;20461;-73
2021/09/13 16:54:50;;;;;;;3.70;1.80;;;19.00;72.60;;;;;;5079209;28;20040;-70
2021/09/13 16:57:17;;;;;;;4.70;1.63;;;18.90;72.40;;;;;;5070792;28;20127;-70
2021/09/13 16:59:44;;;;;;;2.75;1.42;;;18.90;72.70;;;;;;5066251;28;20036;-72
2021/09/13 17:02:11;;;;;;;3.40;1.58;;;19.00;72.90;;;;;;5069634;28;20059;-68
2021/09/13 17:04:38;;;;;;;4.05;1.60;;;19.10;73.30;;;;;;5071745;28;20381;-68
2021/09/13 17:07:09;;;;;;;3.40;1.58;;;19.00;72.90;;;;;;5053900;28;20627;-68
2021/09/13 17:09:36;;;;;;;5.38;1.85;;;19.00;73.40;;;;;;5052708;28;20080;-68
2021/09/13 17:12:03;;;;;;;4.13;1.45;;;19.00;73.30;;;;;;5063676;28;20044;-70
2021/09/13 17:14:31;;;;;;;16.05;13.40;;;19.00;73.40;;;;;;5083127;28;20146;-72
2021/09/13 17:16:59;;;;;;;12.15;8.90;;;19.10;74.50;;;;;;5083100;28;20048;-71
2021/09/13 17:19:26;;;;;;;9.73;7.25;;;19.30;72.60;;;;;;5047267;28;20049;-73
2021/09/13 17:21:53;;;;;;;7.65;4.43;;;19.30;72.00;;;;;;5086347;28;20142;-70
2021/09/13 17:24:21;;;;;;;4.28;2.70;;;19.30;71.90;;;;;;5061111;28;20047;-70
2021/09/13 17:26:48;;;;;;;4.65;2.40;;;19.30;71.80;;;;;;5081181;28;20117;-70
2021/09/13 17:29:15;;;;;;;2.88;1.52;;;19.30;72.00;;;;;;5070715;28;20040;-71
2021/09/13 17:31:42;;;;;;;2.10;1.35;;;19.20;72.00;;;;;;5072624;28;20407;-69
2021/09/13 17:34:10;;;;;;;2.97;1.92;;;19.10;72.00;;;;;;5072192;28;20044;-70
2021/09/13 17:36:37;;;;;;;5.13;2.10;;;19.10;72.60;;;;;;5055330;28;20052;-70
2021/09/13 17:39:05;;;;;;;3.08;1.75;;;19.00;73.10;;;;;;5056739;28;20041;-71
2021/09/13 17:41:34;;;;;;;4.55;1.70;;;18.90;73.40;;;;;;5039773;28;20403;-71
2021/09/13 17:44:02;;;;;;;1.35;1.10;;;18.80;73.60;;;;;;5071527;28;20044;-70
2021/09/13 17:46:29;;;;;;;1.95;1.35;;;18.70;73.30;;;;;;5055001;28;20502;-69
2021/09/13 17:48:56;;;;;;;3.20;1.75;;;18.70;74.20;;;;;;5081242;28;20049;-71
2021/09/13 17:51:23;;;;;;;2.65;1.13;;;18.70;73.90;;;;;;5053092;28;20052;-71
2021/09/13 17:53:50;;;;;;;3.28;1.40;;;18.60;73.80;;;;;;5071606;28;20580;-71
2021/09/13 17:56:18;;;;;;;5.20;1.73;;;18.60;74.40;;;;;;5070046;28;20084;-71
2021/09/13 17:58:45;;;;;;;2.55;1.48;;;18.50;74.90;;;;;;5053262;28;20048;-72
2021/09/13 18:01:13;;;;;;;3.00;1.98;;;18.40;74.20;;;;;;5070402;28;20052;-72
2021/09/13 18:03:40;;;;;;;2.40;1.30;;;18.30;74.90;;;;;;5054848;28;20083;-71
2021/09/13 18:06:08;;;;;;;1.88;1.35;;;18.30;74.80;;;;;;5061132;28;20051;-73
2021/09/13 18:08:35;;;;;;;2.45;1.20;;;18.20;75.20;;;;;;5063323;28;20076;-71
2021/09/13 18:11:02;;;;;;;6.63;2.60;;;18.20;75.20;;;;;;5074460;28;20151;-70
2021/09/13 18:13:29;;;;;;;7.18;2.90;;;18.00;78.00;;;;;;5078504;28;20037;-69
2021/09/13 18:15:56;;;;;;;11.43;5.50;;;17.80;78.30;;;;;;5051548;28;20431;-69
2021/09/13 18:18:24;;;;;;;5.63;3.17;;;17.60;79.10;;;;;;5052299;28;20110;-69
2021/09/13 18:20:52;;;;;;;3.85;2.00;;;17.50;79.60;;;;;;5052378;28;20139;-70
2021/09/13 18:23:19;;;;;;;4.55;1.95;;;17.40;81.00;;;;;;5064106;28;20123;-71
2021/09/13 18:25:46;;;;;;;11.23;3.05;;;17.30;80.80;;;;;;5075332;28;20107;-72
2021/09/13 18:28:13;;;;;;;6.55;3.20;;;17.30;81.10;;;;;;5069728;28;20408;-71
2021/09/13 18:30:41;;;;;;;6.75;2.63;;;17.20;81.80;;;;;;5072540;28;20127;-71
2021/09/13 18:33:08;;;;;;;5.60;2.10;;;17.20;82.10;;;;;;5055759;28;20040;-71
2021/09/13 18:35:35;;;;;;;3.10;1.80;;;17.10;81.90;;;;;;5061189;28;20097;-71
2021/09/13 18:38:02;;;;;;;7.60;2.72;;;17.10;81.40;;;;;;5036663;28;20041;-73
2021/09/13 18:40:29;;;;;;;5.45;2.53;;;17.00;81.80;;;;;;5060879;28;20083;-71
2021/09/13 18:42:56;;;;;;;5.38;2.20;;;17.00;82.10;;;;;;5069813;28;20043;-77
2021/09/13 18:45:23;;;;;;;39.05;27.67;;;17.00;82.10;;;;;;5079259;28;20412;-71
2021/09/13 18:47:50;;;;;;;8.85;5.25;;;17.00;81.80;;;;;;5056288;28;20048;-73
2021/09/13 18:50:18;;;;;;;9.30;3.20;;;16.90;81.50;;;;;;5071620;28;20058;-72
2021/09/13 18:52:45;;;;;;;5.90;2.47;;;16.90;81.60;;;;;;5060446;28;20127;-72
2021/09/13 18:55:12;;;;;;;4.95;2.83;;;16.90;82.20;;;;;;5074810;28;20492;-71
2021/09/13 18:57:39;;;;;;;5.38;3.38;;;16.90;82.20;;;;;;5063551;28;20084;-72
2021/09/13 19:00:10;;;;;;;5.65;2.92;;;16.80;82.60;;;;;;5046312;28;20087;-71
2021/09/13 19:02:37;;;;;;;6.07;2.58;;;16.80;82.40;;;;;;5070203;28;20185;-72
2021/09/13 19:05:05;;;;;;;3.72;2.33;;;16.80;82.90;;;;;;5063471;28;20048;-71
2021/09/13 19:07:32;;;;;;;3.97;2.28;;;16.80;83.10;;;;;;5078258;28;20052;-71
2021/09/13 19:09:59;;;;;;;5.00;2.97;;;16.70;83.10;;;;;;5059127;28;20044;-71
2021/09/13 19:12:26;;;;;;;6.05;2.50;;;16.70;82.90;;;;;;5073395;28;20056;-72
2021/09/13 19:14:53;;;;;;;6.75;2.58;;;16.70;83.70;;;;;;5072059;28;20514;-72
2021/09/13 19:17:20;;;;;;;6.97;4.82;;;16.70;83.40;;;;;;5079378;28;20091;-66
2021/09/13 19:19:48;;;;;;;10.35;5.50;;;16.70;83.70;;;;;;5053267;28;20387;-66
2021/09/13 19:22:15;;;;;;;10.00;5.10;;;16.70;84.00;;;;;;5070155;28;20066;-66
2021/09/13 19:24:43;;;;;;;8.55;3.20;;;16.70;84.00;;;;;;5060243;28;20047;-71
2021/09/13 19:27:10;;;;;;;4.15;2.53;;;16.70;84.30;;;;;;5081599;28;20499;-70
2021/09/13 19:29:37;;;;;;;5.97;2.50;;;16.60;85.00;;;;;;5061561;28;20171;-66
2021/09/13 19:32:04;;;;;;;6.95;3.03;;;16.60;84.90;;;;;;5072363;28;20097;-66
2021/09/13 19:34:31;;;;;;;5.97;2.67;;;16.60;85.30;;;;;;5055370;28;20058;-68
2021/09/13 19:36:58;;;;;;;8.93;2.83;;;16.60;85.60;;;;;;5062394;28;20040;-66
2021/09/13 19:39:25;;;;;;;3.80;2.72;;;16.60;85.40;;;;;;5083782;28;20555;-66
2021/09/13 19:41:52;;;;;;;6.43;2.70;;;16.50;85.00;;;;;;5070365;28;20051;-72
2021/09/13 19:44:19;;;;;;;10.35;4.72;;;16.50;84.90;;;;;;5077999;28;20131;-72
2021/09/13 19:46:46;;;;;;;5.43;2.92;;;16.50;84.80;;;;;;5084759;28;20040;-68
2021/09/13 19:49:14;;;;;;;4.90;2.72;;;16.50;85.20;;;;;;5069917;28;20474;-68
2021/09/13 19:51:41;;;;;;;3.83;2.67;;;16.50;85.20;;;;;;5079754;28;20084;-68
2021/09/13 19:54:09;;;;;;;6.65;2.78;;;16.50;84.90;;;;;;5086563;28;20199;-68
2021/09/13 19:56:38;;;;;;;6.50;3.78;;;16.40;85.60;;;;;;5059538;28;20044;-68
2021/09/13 19:59:05;;;;;;;4.80;2.95;;;16.40;85.50;;;;;;5037871;28;20106;-67
2021/09/13 20:01:32;;;;;;;6.90;3.20;;;16.50;85.40;;;;;;5051792;28;20052;-68
2021/09/13 20:04:00;;;;;;;5.88;2.97;;;16.50;85.70;;;;;;5072570;28;20036;-68
2021/09/13 20:06:27;;;;;;;7.78;3.75;;;16.40;85.70;;;;;;5058952;28;20047;-67
2021/09/13 20:08:54;;;;;;;8.80;5.68;;;16.40;85.80;;;;;;5039656;28;20109;-67
2021/09/13 20:11:21;;;;;;;19.92;11.23;;;16.40;86.00;;;;;;5054652;28;20357;-67
2021/09/13 20:13:47;;;;;;;9.77;4.35;;;16.40;85.60;;;;;;5034326;28;20123;-67
2021/09/13 20:16:15;;;;;;;9.05;3.40;;;16.40;85.90;;;;;;5074271;28;20073;-68
2021/09/13 20:18:42;;;;;;;4.47;2.58;;;16.40;86.00;;;;;;5081444;28;20056;-68
2021/09/13 20:21:09;;;;;;;9.40;4.95;;;16.40;86.40;;;;;;5053515;28;20131;-68
2021/09/13 20:23:36;;;;;;;6.95;3.30;;;16.30;86.60;;;;;;5059684;28;20499;-67
2021/09/13 20:26:03;;;;;;;8.68;3.20;;;16.40;86.90;;;;;;5056175;28;20037;-67
2021/09/13 20:28:30;;;;;;;11.07;3.53;;;16.40;86.50;;;;;;5062190;28;20062;-68
2021/09/13 20:30:57;;;;;;;5.38;3.47;;;16.40;87.10;;;;;;5056068;28;20052;-68
2021/09/13 20:33:24;;;;;;;7.18;3.33;;;16.30;86.60;;;;;;5074235;28;20052;-68
2021/09/13 20:35:51;;;;;;;8.70;3.72;;;16.40;86.90;;;;;;5053239;28;20381;-68
2021/09/13 20:38:18;;;;;;;4.15;3.20;;;16.40;87.00;;;;;;5075718;28;20468;-67
2021/09/13 20:40:45;;;;;;;5.65;3.30;;;16.40;87.00;;;;;;5069007;28;20461;-67
2021/09/13 20:43:12;;;;;;;5.82;3.20;;;16.40;87.30;;;;;;5093545;28;20052;-67
2021/09/13 20:45:39;;;;;;;9.35;3.50;;;16.40;87.40;;;;;;5075607;28;20068;-67
2021/09/13 20:48:06;;;;;;;5.40;3.35;;;16.40;87.40;;;;;;5074006;28;20080;-67
2021/09/13 20:50:33;;;;;;;12.73;3.70;;;16.50;87.50;;;;;;5072628;28;20044;-68
2021/09/13 20:53:00;;;;;;;5.97;3.65;;;16.50;87.40;;;;;;5070563;28;20049;-67
2021/09/13 20:55:27;;;;;;;8.02;3.80;;;16.40;87.70;;;;;;5070271;28;20155;-67
2021/09/13 20:57:54;;;;;;;9.10;5.40;;;16.40;88.20;;;;;;5068453;28;20070;-68
2021/09/13 21:00:21;;;;;;;5.45;3.67;;;16.40;88.30;;;;;;5074753;28;20056;-68
2021/09/13 21:02:48;;;;;;;8.15;3.70;;;16.40;88.60;;;;;;5085208;28;20066;-67
2021/09/13 21:05:16;;;;;;;5.78;3.67;;;16.40;88.50;;;;;;5041431;28;20060;-67
2021/09/13 21:07:43;;;;;;;9.68;3.75;;;16.40;88.20;;;;;;5059518;28;20054;-67
2021/09/13 21:10:10;;;;;;;8.57;3.92;;;16.30;88.30;;;;;;5074470;28;20587;-68
2021/09/13 21:12:37;;;;;;;8.15;3.75;;;16.30;88.40;;;;;;5087708;28;20052;-67
2021/09/13 21:15:04;;;;;;;7.90;3.50;;;16.30;88.50;;;;;;5078432;28;20574;-67
2021/09/13 21:17:31;;;;;;;8.85;3.65;;;16.40;88.30;;;;;;5060545;28;20109;-67
2021/09/13 21:19:58;;;;;;;9.02;4.10;;;16.30;88.90;;;;;;5078996;28;20051;-67
2021/09/13 21:22:25;;;;;;;9.70;3.55;;;16.30;88.90;;;;;;5063319;28;20432;-68
2021/09/13 21:24:52;;;;;;;7.55;3.85;;;16.20;89.00;;;;;;5053615;28;20114;-67
2021/09/13 21:27:19;;;;;;;10.55;5.05;;;16.20;89.10;;;;;;5069016;28;20111;-68
2021/09/13 21:29:55;;;;;;;8.52;3.88;;;16.20;89.20;;;;;;5075974;28;20044;-67
2021/09/13 21:32:22;;;;;;;7.65;4.15;;;16.20;89.20;;;;;;5063715;28;20136;-68
2021/09/13 21:34:49;;;;;;;6.53;4.20;;;16.20;89.20;;;;;;5049610;28;20504;-68
2021/09/13 21:37:17;;;;;;;9.25;3.90;;;16.10;89.60;;;;;;5057499;28;20439;-67
2021/09/13 21:39:44;;;;;;;9.82;4.15;;;16.10;89.30;;;;;;5063011;28;20058;-67
2021/09/13 21:42:11;;;;;;;5.85;4.00;;;16.10;89.50;;;;;;5053918;28;20175;-68
2021/09/13 21:44:38;;;;;;;7.47;4.50;;;16.00;89.70;;;;;;5056372;28;20127;-68
2021/09/13 21:47:05;;;;;;;6.97;3.97;;;16.00;89.50;;;;;;5055737;28;20105;-67
2021/09/13 21:49:32;;;;;;;8.95;4.57;;;15.90;89.70;;;;;;5054197;28;20131;-67
2021/09/13 21:51:59;;;;;;;10.57;4.65;;;15.90;90.00;;;;;;5079804;28;20048;-67
2021/09/13 21:54:28;;;;;;;9.18;5.05;;;15.90;90.00;;;;;;5073679;28;20044;-67
2021/09/13 21:56:55;;;;;;;8.90;4.50;;;15.90;90.00;;;;;;5074244;28;20070;-68
2021/09/13 21:59:22;;;;;;;7.30;5.00;;;15.80;90.00;;;;;;5051788;28;20045;-67
2021/09/13 22:01:49;;;;;;;10.75;5.22;;;15.80;90.20;;;;;;5057133;28;20510;-68
2021/09/13 22:04:16;;;;;;;10.50;4.82;;;15.80;90.30;;;;;;5053408;28;20496;-67
2021/09/13 22:06:43;;;;;;;7.63;5.00;;;15.70;90.70;;;;;;5054858;28;20041;-68
2021/09/13 22:09:11;;;;;;;9.15;4.63;;;15.70;90.30;;;;;;5062450;28;20218;-67
2021/09/13 22:11:38;;;;;;;11.57;4.70;;;15.70;90.30;;;;;;5054552;28;20058;-67
2021/09/13 22:14:05;;;;;;;14.15;6.30;;;15.60;90.20;;;;;;5042624;28;20045;-67
2021/09/13 22:16:33;;;;;;;8.63;5.20;;;15.70;90.70;;;;;;5053492;28;20106;-67
2021/09/13 22:19:00;;;;;;;6.75;4.82;;;15.70;90.50;;;;;;5063362;28;20094;-68
2021/09/13 22:21:27;;;;;;;10.05;4.43;;;15.70;91.00;;;;;;5036982;28;20048;-67
2021/09/13 22:23:54;;;;;;;9.35;5.45;;;15.70;90.90;;;;;;5079096;28;20043;-67
2021/09/13 22:26:21;;;;;;;9.98;5.03;;;15.80;91.10;;;;;;5054992;28;20052;-67
2021/09/13 22:28:48;;;;;;;10.18;5.28;;;15.80;90.90;;;;;;5054377;28;20095;-67
2021/09/13 22:31:15;;;;;;;7.38;4.68;;;15.90;90.90;;;;;;5071396;28;20041;-67
2021/09/13 22:33:42;;;;;;;9.23;4.55;;;15.90;90.90;;;;;;5059357;28;20052;-67
2021/09/13 22:36:09;;;;;;;7.55;4.53;;;15.90;90.90;;;;;;5036601;28;20136;-67
2021/09/13 22:38:36;;;;;;;8.43;5.10;;;15.90;90.90;;;;;;5069501;28;20124;-67
2021/09/13 22:41:03;;;;;;;7.35;4.47;;;15.90;90.80;;;;;;5052934;28;20120;-68